メインページ
METAR-TAF:

METAR-TAF

空港 :

ムルマンスク, ロシア

緯度: 68-58N, 経度: 033-03E, 海抜: 51m

現時点の気象観測

当レポートは40分前の03:00(UTC)に作成
南/南西の風 2kt
気温 0°C
湿度 80%
気圧 1002 hPa
視程10km以上
1,500メートル以下は雲なし、積乱雲なし

METAR: ULMM 250300Z 21001MPS CAVOK 00/M03 Q1002 R31/110065 NOSIG RMK QFE744

時間: 06:40 (03:40 UTC)


TAF: 見つかりません

4,000以上の空港の気象観測と天気予報(METAR報とTAF報)

利用可能な観測所は地図上に黄色い丸と赤い丸で示す。

丸の上にカーソルを重ねると観測所名を参照できる。

次にクリックすると気象観測と天気予報を参照できる。

マップの切り替え:黒色「×」印の緑ボタンをクリックして拡大、「-」印の緑ボタンをクリックして縮小、緑色の三角印をクリックして隣りの地図に切り替え


METAR-TAF: